createdAt,value
2023-04-08T00:04:37.540Z,41.5
2023-04-08T00:09:38.257Z,41.5
2023-04-08T00:14:38.875Z,41.4
2023-04-08T00:19:39.331Z,41.4
2023-04-08T00:24:39.847Z,41.3
2023-04-08T00:29:40.353Z,41.3
2023-04-08T00:34:40.838Z,41.2
2023-04-08T00:39:41.311Z,41.2
2023-04-08T00:44:41.789Z,41.2
2023-04-08T00:49:42.268Z,41.1
2023-04-08T00:54:42.709Z,41.1
2023-04-08T00:59:43.171Z,41.1
2023-04-08T01:04:43.685Z,41
2023-04-08T01:09:44.177Z,41
2023-04-08T01:14:44.741Z,40.9
2023-04-08T01:19:45.302Z,40.9
2023-04-08T01:24:45.968Z,40.8
2023-04-08T01:29:46.530Z,40.8
2023-04-08T01:34:47.102Z,40.8
2023-04-08T01:39:47.766Z,40.7
2023-04-08T01:44:48.307Z,40.7
2023-04-08T01:49:48.844Z,40.6
2023-04-08T01:54:49.436Z,40.6
2023-04-08T01:59:49.968Z,40.6
2023-04-08T02:04:50.740Z,40.5
2023-04-08T02:09:51.330Z,40.4
2023-04-08T02:14:54.787Z,40.4
2023-04-08T02:19:55.324Z,40.4
2023-04-08T02:24:55.826Z,40.4
2023-04-08T02:29:56.508Z,40.3
2023-04-08T02:34:56.995Z,40.2
2023-04-08T02:39:57.517Z,40.2
2023-04-08T02:44:58.009Z,40.2
2023-04-08T02:49:58.513Z,40.1
2023-04-08T02:54:58.996Z,40.1
2023-04-08T02:59:59.509Z,40.1
2023-04-08T03:04:59.977Z,40
2023-04-08T03:10:01.335Z,40
2023-04-08T03:15:01.887Z,39.9
2023-04-08T03:20:02.430Z,39.9
2023-04-08T03:25:02.918Z,39.9
2023-04-08T03:30:03.446Z,39.8
2023-04-08T03:35:04.118Z,39.8
2023-04-08T03:40:04.627Z,39.7
2023-04-08T03:45:05.104Z,39.7
2023-04-08T03:50:05.821Z,39.7
2023-04-08T03:55:06.327Z,39.6
2023-04-08T04:00:06.818Z,39.6
2023-04-08T04:05:07.310Z,39.6
2023-04-08T04:10:07.766Z,39.5
2023-04-08T04:15:09.130Z,39.5
2023-04-08T04:20:09.612Z,39.4
2023-04-08T04:25:10.130Z,39.4
2023-04-08T04:30:10.638Z,39.4
2023-04-08T04:35:11.420Z,39.3
2023-04-08T04:40:11.854Z,39.3
2023-04-08T04:45:12.290Z,39.2
2023-04-08T04:50:13.738Z,39.2
2023-04-08T04:55:14.286Z,39.2
2023-04-08T05:00:14.731Z,39.1
2023-04-08T05:05:15.229Z,39.1
2023-04-08T05:10:15.819Z,39.1
2023-04-08T05:15:16.275Z,39.1
2023-04-08T05:20:17.684Z,39
2023-04-08T05:25:18.264Z,39
2023-04-08T05:30:18.776Z,38.9
2023-04-08T05:35:19.317Z,38.9
2023-04-08T05:45:25.966Z,38.8
2023-04-08T05:50:26.439Z,38.8
2023-04-08T05:55:26.934Z,38.7
2023-04-08T06:00:27.517Z,38.7
2023-04-08T06:05:27.952Z,38.7
2023-04-08T06:10:28.413Z,38.6
2023-04-08T06:15:28.884Z,38.6
2023-04-08T06:20:29.432Z,38.6
2023-04-08T06:25:29.894Z,38.6
2023-04-08T06:30:30.339Z,38.5
2023-04-08T06:35:32.246Z,38.5
2023-04-08T06:40:33.269Z,38.4
2023-04-08T06:45:33.755Z,38.4
2023-04-08T06:50:34.410Z,38.4
2023-04-08T06:55:34.864Z,38.3
2023-04-08T07:00:36.145Z,38.3
2023-04-08T07:05:36.650Z,38.2
2023-04-08T07:10:37.456Z,38.2
2023-04-08T07:15:37.954Z,38.2
2023-04-08T07:20:38.508Z,38.2
2023-04-08T07:25:39.059Z,38.1
2023-04-08T07:30:39.621Z,38.1
2023-04-08T07:35:40.180Z,38
2023-04-08T07:40:40.661Z,38
2023-04-08T07:45:41.140Z,37.9
2023-04-08T07:51:07.609Z,37.9
2023-04-08T07:56:10.304Z,37.9
2023-04-08T08:01:10.861Z,37.9
2023-04-08T08:06:11.326Z,37.8
2023-04-08T08:11:11.714Z,37.8
2023-04-08T08:16:12.619Z,37.7
2023-04-08T08:21:13.118Z,37.7
2023-04-08T08:26:13.552Z,37.7
2023-04-08T08:31:14.048Z,37.7
2023-04-08T08:36:14.626Z,37.6
2023-04-08T08:41:15.093Z,37.6
2023-04-08T08:46:15.588Z,37.6
2023-04-08T08:51:16.159Z,37.5
2023-04-08T08:56:18.597Z,37.5
2023-04-08T09:01:19.262Z,37.5
2023-04-08T09:06:19.916Z,37.4
2023-04-08T09:11:23.242Z,37.4
2023-04-08T09:16:23.744Z,37.4
2023-04-08T09:21:24.230Z,37.3
2023-04-08T09:26:24.760Z,37.3
2023-04-08T09:31:25.251Z,37.3
2023-04-08T09:36:25.632Z,37.2
2023-04-08T09:41:26.129Z,37.2
2023-04-08T09:46:26.570Z,37.2
2023-04-08T09:51:26.939Z,37.2
2023-04-08T09:56:27.336Z,37.1
2023-04-08T10:01:27.817Z,37.1
2023-04-08T10:06:28.400Z,37.1
2023-04-08T10:11:28.774Z,37.1
2023-04-08T10:16:29.168Z,37
2023-04-08T10:21:29.629Z,37
2023-04-08T10:26:30.032Z,37
2023-04-08T10:31:30.487Z,36.9
2023-04-08T10:36:30.985Z,36.9
2023-04-08T10:41:31.585Z,36.9
2023-04-08T10:46:32.041Z,36.8
2023-04-08T10:51:33.795Z,36.7
2023-04-08T10:56:34.511Z,36.7
2023-04-08T11:01:35.180Z,36.7
2023-04-08T11:06:35.695Z,36.7
2023-04-08T11:11:36.122Z,36.6
2023-04-08T11:16:36.939Z,36.6
2023-04-08T11:21:37.483Z,36.6
2023-04-08T11:26:37.931Z,36.4
2023-04-08T11:31:38.351Z,36.4
2023-04-08T11:36:38.784Z,36.4
2023-04-08T11:41:39.163Z,36.3
2023-04-08T11:46:39.647Z,36.3
2023-04-08T11:51:40.109Z,36.3
2023-04-08T11:56:40.504Z,36.2
2023-04-08T12:01:40.910Z,36.2
2023-04-08T12:06:41.533Z,36.2
2023-04-08T12:11:41.984Z,36.2
2023-04-08T12:16:42.614Z,36.1
2023-04-08T12:21:43.034Z,36.1
2023-04-08T12:26:44.338Z,36.1
2023-04-08T12:31:44.819Z,36.1
2023-04-08T12:36:45.275Z,36.1
2023-04-08T12:41:46.774Z,36
2023-04-08T12:46:47.197Z,36
2023-04-08T12:51:47.646Z,35.9
2023-04-08T12:56:48.049Z,35.9
2023-04-08T13:01:48.572Z,35.9
2023-04-08T13:06:49.895Z,35.9
2023-04-08T13:11:50.320Z,35.9
2023-04-08T13:16:50.891Z,35.8
2023-04-08T13:21:51.328Z,35.8
2023-04-08T13:26:51.791Z,35.7
2023-04-08T13:31:52.203Z,35.7
2023-04-08T13:36:53.725Z,35.7
2023-04-08T13:41:54.090Z,35.7
2023-04-08T13:46:54.473Z,35.7
2023-04-08T13:51:54.818Z,35.6
2023-04-08T13:56:56.092Z,35.6
2023-04-08T14:01:56.645Z,35.6
2023-04-08T14:06:57.163Z,35.6
2023-04-08T14:11:57.531Z,35.6
2023-04-08T14:16:57.976Z,35.5
2023-04-08T14:21:58.657Z,35.5
2023-04-08T14:26:59.024Z,35.4
2023-04-08T14:31:59.396Z,35.4
2023-04-08T14:36:59.767Z,35.4
2023-04-08T14:42:00.143Z,35.4
2023-04-08T14:47:00.568Z,35.4
2023-04-08T14:52:00.935Z,35.4
2023-04-08T14:57:01.295Z,35.3
2023-04-08T15:02:01.814Z,35.3
2023-04-08T15:07:02.440Z,35.2
2023-04-08T15:12:02.967Z,35.2
2023-04-08T15:17:03.347Z,35.2
2023-04-08T15:22:03.753Z,35.2
2023-04-08T15:27:04.139Z,35.2
2023-04-08T15:32:04.493Z,35.2
2023-04-08T15:37:07.989Z,35.1
2023-04-08T15:42:08.370Z,35.1
2023-04-08T15:47:08.971Z,35.1
2023-04-08T15:52:09.331Z,35.1
2023-04-08T15:57:09.837Z,35.1
2023-04-08T16:02:10.258Z,35
2023-04-08T16:07:10.685Z,35
2023-04-08T16:12:11.007Z,35
2023-04-08T16:17:11.390Z,34.9
2023-04-08T16:22:11.884Z,34.9
2023-04-08T16:27:12.291Z,34.9
2023-04-08T16:32:13.822Z,36.2
2023-04-08T16:37:14.832Z,38.6
2023-04-08T16:42:18.752Z,41.2
2023-04-08T16:47:19.419Z,41.8
2023-04-08T16:52:20.140Z,42.9
2023-04-08T16:57:20.749Z,43.7
2023-04-08T17:02:21.463Z,44.1
2023-04-08T17:07:22.496Z,44.9
2023-04-08T17:12:23.257Z,45.1
2023-04-08T17:17:23.958Z,45.1
2023-04-08T17:22:24.598Z,44.7
2023-04-08T17:27:25.203Z,43.9
2023-04-08T17:32:25.854Z,43.6
2023-04-08T17:37:26.457Z,43.6
2023-04-08T17:42:27.049Z,43.4
2023-04-08T17:47:27.628Z,43.3
2023-04-08T17:52:28.326Z,43.2
2023-04-08T17:57:28.921Z,43.1
2023-04-08T18:02:29.574Z,42.9
2023-04-08T18:07:30.516Z,42.9
2023-04-08T18:12:31.154Z,42.7
2023-04-08T18:17:31.995Z,42.7
2023-04-08T18:22:33.040Z,42.6
2023-04-08T18:27:33.631Z,42.4
2023-04-08T18:32:34.259Z,42.3
2023-04-08T18:37:35.277Z,42.2
2023-04-08T18:42:35.844Z,42.1
2023-04-08T18:47:36.359Z,42
2023-04-08T18:52:36.981Z,41.9
2023-04-08T18:57:37.489Z,41.7
2023-04-08T19:02:38.105Z,41.7
2023-04-08T19:07:38.803Z,41.6
2023-04-08T19:12:39.295Z,41.4
2023-04-08T19:17:39.851Z,41.4
2023-04-08T19:22:40.343Z,41.2
2023-04-08T19:27:40.792Z,41.1
2023-04-08T19:32:41.275Z,41.1
2023-04-08T19:37:42.729Z,40.9
2023-04-08T19:42:43.269Z,40.9
2023-04-08T19:47:43.846Z,40.8
2023-04-08T19:52:44.425Z,40.6
2023-04-08T19:57:45.802Z,40.6
2023-04-08T20:02:47.281Z,40.5
2023-04-08T20:07:48.907Z,40.4
2023-04-08T20:12:49.415Z,40.2
2023-04-08T20:17:49.983Z,40.2
2023-04-08T20:22:51.575Z,40.1
2023-04-08T20:27:52.098Z,40
2023-04-08T20:32:52.632Z,39.9
2023-04-08T20:37:53.164Z,39.9
2023-04-08T20:42:53.640Z,39.7
2023-04-08T20:47:54.144Z,39.7
2023-04-08T20:52:54.766Z,39.6
2023-04-08T20:57:56.164Z,39.4
2023-04-08T21:02:57.147Z,39.3
2023-04-08T21:07:57.708Z,39.2
2023-04-08T21:12:59.170Z,39.1
2023-04-08T21:17:59.734Z,39
2023-04-08T21:23:01.133Z,38.9
2023-04-08T21:28:01.627Z,38.8
2023-04-08T21:33:02.202Z,38.7
2023-04-08T21:38:02.691Z,38.7
2023-04-08T21:43:03.131Z,38.6
2023-04-08T21:48:03.663Z,38.4
2023-04-08T21:53:04.242Z,38.2
2023-04-08T21:58:04.675Z,38.1
2023-04-08T22:03:05.241Z,38
2023-04-08T22:08:05.911Z,37.9
2023-04-08T22:13:06.324Z,37.9
2023-04-08T22:18:06.753Z,37.8
2023-04-08T22:23:07.173Z,37.7
2023-04-08T22:28:07.616Z,37.7
2023-04-08T22:33:08.115Z,37.6
2023-04-08T22:38:08.506Z,37.6
2023-04-08T22:43:08.894Z,37.5
2023-04-08T22:48:09.353Z,37.4
2023-04-08T22:53:09.799Z,37.4
2023-04-08T22:58:10.155Z,37.4
2023-04-08T23:03:10.772Z,37.3
2023-04-08T23:08:11.175Z,37.2
2023-04-08T23:13:11.603Z,37.2
2023-04-08T23:18:11.971Z,37.1
2023-04-08T23:23:12.333Z,37.1
2023-04-08T23:28:12.733Z,37
2023-04-08T23:33:13.110Z,37
2023-04-08T23:38:13.549Z,36.9
2023-04-08T23:43:13.954Z,36.9
2023-04-08T23:48:14.480Z,36.8
2023-04-08T23:53:15.068Z,36.7
2023-04-08T23:58:15.475Z,36.7
